sensor_id;sensor_type;location;lat;lon;timestamp;pressure;altitude;pressure_sealevel;temperature;humidity
29825;BME280;16713;52.916;12.834;2023-02-14T00:01:50;103184.84;;;6.16;68.80
29825;BME280;16713;52.916;12.834;2023-02-14T00:04:17;103187.56;;;6.16;68.86
29825;BME280;16713;52.916;12.834;2023-02-14T00:06:44;103183.50;;;6.13;68.81
29825;BME280;16713;52.916;12.834;2023-02-14T00:09:11;103187.50;;;6.01;69.05
29825;BME280;16713;52.916;12.834;2023-02-14T00:11:38;103187.53;;;6.11;68.45
29825;BME280;16713;52.916;12.834;2023-02-14T00:14:05;103189.44;;;6.05;68.99
29825;BME280;16713;52.916;12.834;2023-02-14T00:16:50;103184.81;;;6.11;68.48
29825;BME280;16713;52.916;12.834;2023-02-14T00:19:17;103189.16;;;6.07;69.24
29825;BME280;16713;52.916;12.834;2023-02-14T00:21:44;103186.22;;;6.13;68.61
29825;BME280;16713;52.916;12.834;2023-02-14T00:24:12;103178.03;;;6.13;68.95
29825;BME280;16713;52.916;12.834;2023-02-14T00:26:38;103182.66;;;6.13;69.03
29825;BME280;16713;52.916;12.834;2023-02-14T00:29:05;103196.84;;;6.15;68.85
29825;BME280;16713;52.916;12.834;2023-02-14T00:31:32;103196.25;;;6.08;68.96
29825;BME280;16713;52.916;12.834;2023-02-14T00:33:59;103191.63;;;6.08;69.75
29825;BME280;16713;52.916;12.834;2023-02-14T00:36:25;103188.91;;;6.08;69.41
29825;BME280;16713;52.916;12.834;2023-02-14T00:38:52;103192.16;;;6.05;69.15
29825;BME280;16713;52.916;12.834;2023-02-14T00:41:18;103187.72;;;5.94;69.58
29825;BME280;16713;52.916;12.834;2023-02-14T00:43:45;103182.06;;;6.06;69.05
29825;BME280;16713;52.916;12.834;2023-02-14T00:46:12;103182.59;;;6.03;69.27
29825;BME280;16713;52.916;12.834;2023-02-14T00:48:39;103185.56;;;6.01;69.63
29825;BME280;16713;52.916;12.834;2023-02-14T00:51:05;103186.69;;;6.00;69.72
29825;BME280;16713;52.916;12.834;2023-02-14T00:53:32;103182.28;;;5.94;70.29
29825;BME280;16713;52.916;12.834;2023-02-14T00:55:58;103189.97;;;6.02;70.02
29825;BME280;16713;52.916;12.834;2023-02-14T00:58:24;103178.50;;;6.00;70.27
29825;BME280;16713;52.916;12.834;2023-02-14T01:00:51;103180.41;;;6.00;70.24
29825;BME280;16713;52.916;12.834;2023-02-14T01:03:17;103182.03;;;5.96;70.54
29825;BME280;16713;52.916;12.834;2023-02-14T01:05:44;103177.91;;;5.93;71.00
29825;BME280;16713;52.916;12.834;2023-02-14T01:08:10;103178.19;;;5.97;70.59
29825;BME280;16713;52.916;12.834;2023-02-14T01:10:36;103169.19;;;5.91;70.06
29825;BME280;16713;52.916;12.834;2023-02-14T01:13:03;103175.44;;;5.92;70.10
29825;BME280;16713;52.916;12.834;2023-02-14T01:15:29;103170.22;;;5.85;69.33
29825;BME280;16713;52.916;12.834;2023-02-14T01:17:59;103172.69;;;5.87;69.82
29825;BME280;16713;52.916;12.834;2023-02-14T01:20:25;103168.91;;;5.88;70.08
29825;BME280;16713;52.916;12.834;2023-02-14T01:22:52;103165.06;;;5.89;69.78
29825;BME280;16713;52.916;12.834;2023-02-14T01:25:18;103171.91;;;5.91;69.86
29825;BME280;16713;52.916;12.834;2023-02-14T01:27:44;103168.38;;;5.91;69.90
29825;BME280;16713;52.916;12.834;2023-02-14T01:30:11;103161.53;;;5.88;69.80
29825;BME280;16713;52.916;12.834;2023-02-14T01:32:37;103156.34;;;5.87;69.81
29825;BME280;16713;52.916;12.834;2023-02-14T01:35:04;103154.44;;;5.87;69.81
29825;BME280;16713;52.916;12.834;2023-02-14T01:37:30;103156.31;;;5.82;70.38
29825;BME280;16713;52.916;12.834;2023-02-14T01:39:57;103149.72;;;5.73;70.17
29825;BME280;16713;52.916;12.834;2023-02-14T01:42:23;103151.97;;;5.81;69.77
29825;BME280;16713;52.916;12.834;2023-02-14T01:45:00;103160.69;;;5.83;69.60
29825;BME280;16713;52.916;12.834;2023-02-14T01:47:28;103150.38;;;5.90;70.11
29825;BME280;16713;52.916;12.834;2023-02-14T01:49:57;103159.09;;;5.92;69.67
29825;BME280;16713;52.916;12.834;2023-02-14T01:52:28;103152.00;;;5.86;70.27
29825;BME280;16713;52.916;12.834;2023-02-14T01:55:02;103155.25;;;5.83;70.79
29825;BME280;16713;52.916;12.834;2023-02-14T01:57:38;103157.41;;;5.81;71.17
29825;BME280;16713;52.916;12.834;2023-02-14T02:00:05;103157.72;;;5.84;71.32
29825;BME280;16713;52.916;12.834;2023-02-14T02:02:51;103158.50;;;5.80;71.07
29825;BME280;16713;52.916;12.834;2023-02-14T02:05:18;103164.50;;;5.87;70.81
29825;BME280;16713;52.916;12.834;2023-02-14T02:07:50;103159.88;;;5.82;70.69
29825;BME280;16713;52.916;12.834;2023-02-14T02:10:17;103162.53;;;5.77;70.54
29825;BME280;16713;52.916;12.834;2023-02-14T02:12:43;103152.75;;;5.76;70.60
29825;BME280;16713;52.916;12.834;2023-02-14T02:15:10;103153.03;;;5.75;70.93
29825;BME280;16713;52.916;12.834;2023-02-14T02:23:52;103150.56;;;5.73;70.26
29825;BME280;16713;52.916;12.834;2023-02-14T02:28:44;103151.09;;;5.70;71.33
29825;BME280;16713;52.916;12.834;2023-02-14T02:36:46;103146.66;;;5.64;70.31
29825;BME280;16713;52.916;12.834;2023-02-14T02:52:07;103141.25;;;5.69;69.87
29825;BME280;16713;52.916;12.834;2023-02-14T02:54:57;103141.28;;;5.74;69.56
29825;BME280;16713;52.916;12.834;2023-02-14T02:57:26;103139.66;;;5.73;69.59
29825;BME280;16713;52.916;12.834;2023-02-14T02:59:54;103139.94;;;5.72;70.15
29825;BME280;16713;52.916;12.834;2023-02-14T03:02:24;103135.31;;;5.77;70.15
29825;BME280;16713;52.916;12.834;2023-02-14T03:04:54;103140.47;;;5.74;70.49
29825;BME280;16713;52.916;12.834;2023-02-14T03:15:09;103117.88;;;5.73;70.42
29825;BME280;16713;52.916;12.834;2023-02-14T03:20:16;103124.63;;;5.61;70.44
29825;BME280;16713;52.916;12.834;2023-02-14T03:27:45;103128.94;;;5.57;70.22
29825;BME280;16713;52.916;12.834;2023-02-14T03:30:14;103129.28;;;5.65;70.06
29825;BME280;16713;52.916;12.834;2023-02-14T03:32:45;103132.56;;;5.72;69.85
29825;BME280;16713;52.916;12.834;2023-02-14T03:40:15;103126.88;;;5.79;69.33
29825;BME280;16713;52.916;12.834;2023-02-14T03:42:52;103120.06;;;5.76;69.88
29825;BME280;16713;52.916;12.834;2023-02-14T03:48:12;103112.13;;;5.70;70.65
29825;BME280;16713;52.916;12.834;2023-02-14T03:50:40;103109.69;;;5.68;70.82
29825;BME280;16713;52.916;12.834;2023-02-14T03:53:07;103112.38;;;5.63;71.50
29825;BME280;16713;52.916;12.834;2023-02-14T03:55:36;103115.97;;;5.69;71.30
29825;BME280;16713;52.916;12.834;2023-02-14T03:58:27;103115.91;;;5.64;71.63
29825;BME280;16713;52.916;12.834;2023-02-14T04:00:53;103114.88;;;5.70;71.04
29825;BME280;16713;52.916;12.834;2023-02-14T04:03:24;103126.03;;;5.68;71.01
29825;BME280;16713;52.916;12.834;2023-02-14T04:05:53;103129.56;;;5.69;70.45
29825;BME280;16713;52.916;12.834;2023-02-14T04:08:23;103122.72;;;5.66;70.78
29825;BME280;16713;52.916;12.834;2023-02-14T04:10:50;103129.00;;;5.67;70.32
29825;BME280;16713;52.916;12.834;2023-02-14T04:13:17;103124.63;;;5.61;69.99
29825;BME280;16713;52.916;12.834;2023-02-14T04:15:44;103124.63;;;5.61;70.20
29825;BME280;16713;52.916;12.834;2023-02-14T04:18:10;103119.75;;;5.68;70.24
29825;BME280;16713;52.916;12.834;2023-02-14T04:20:55;103121.38;;;5.64;70.17
29825;BME280;16713;52.916;12.834;2023-02-14T04:23:21;103119.19;;;5.66;70.38
29825;BME280;16713;52.916;12.834;2023-02-14T04:25:48;103112.91;;;5.60;70.27
29825;BME280;16713;52.916;12.834;2023-02-14T04:28:14;103105.81;;;5.64;69.87
29825;BME280;16713;52.916;12.834;2023-02-14T04:30:41;103114.81;;;5.65;70.87
29825;BME280;16713;52.916;12.834;2023-02-14T04:33:07;103100.13;;;5.66;69.95
29825;BME280;16713;52.916;12.834;2023-02-14T04:35:34;103110.19;;;5.60;70.04
29825;BME280;16713;52.916;12.834;2023-02-14T04:38:00;103108.78;;;5.58;71.13
29825;BME280;16713;52.916;12.834;2023-02-14T04:40:27;103099.84;;;5.62;71.17
29825;BME280;16713;52.916;12.834;2023-02-14T04:42:54;103101.25;;;5.70;70.16
29825;BME280;16713;52.916;12.834;2023-02-14T04:45:20;103101.78;;;5.67;70.96
29825;BME280;16713;52.916;12.834;2023-02-14T04:47:47;103101.16;;;5.55;70.54
29825;BME280;16713;52.916;12.834;2023-02-14T04:50:13;103099.78;;;5.52;71.30
29825;BME280;16713;52.916;12.834;2023-02-14T04:52:40;103100.66;;;5.63;70.71
29825;BME280;16713;52.916;12.834;2023-02-14T04:55:07;103101.16;;;5.55;70.94
29825;BME280;16713;52.916;12.834;2023-02-14T04:57:34;103093.78;;;5.50;71.70
29825;BME280;16713;52.916;12.834;2023-02-14T05:00:00;103093.81;;;5.55;71.31
29825;BME280;16713;52.916;12.834;2023-02-14T05:02:26;103097.88;;;5.58;70.79
29825;BME280;16713;52.916;12.834;2023-02-14T05:04:53;103098.47;;;5.60;71.23
29825;BME280;16713;52.916;12.834;2023-02-14T05:07:19;103103.38;;;5.63;70.48
29825;BME280;16713;52.916;12.834;2023-02-14T05:09:45;103096.88;;;5.64;70.16
29825;BME280;16713;52.916;12.834;2023-02-14T05:12:12;103090.28;;;5.60;71.04
29825;BME280;16713;52.916;12.834;2023-02-14T05:14:38;103096.25;;;5.57;71.38
29825;BME280;16713;52.916;12.834;2023-02-14T05:17:04;103092.94;;;5.45;71.33
29825;BME280;16713;52.916;12.834;2023-02-14T05:19:31;103094.47;;;5.36;72.43
29825;BME280;16713;52.916;12.834;2023-02-14T05:21:57;103098.41;;;5.55;71.39
29825;BME280;16713;52.916;12.834;2023-02-14T05:24:23;103088.38;;;5.55;71.25
29825;BME280;16713;52.916;12.834;2023-02-14T05:26:50;103090.81;;;5.57;71.02
29825;BME280;16713;52.916;12.834;2023-02-14T05:29:16;103094.88;;;5.49;71.23
29825;BME280;16713;52.916;12.834;2023-02-14T05:31:42;103101.63;;;5.47;70.64
29825;BME280;16713;52.916;12.834;2023-02-14T05:34:09;103104.69;;;5.55;70.91
29825;BME280;16713;52.916;12.834;2023-02-14T05:36:35;103090.81;;;5.57;70.52
29825;BME280;16713;52.916;12.834;2023-02-14T05:39:02;103095.44;;;5.51;70.57
29825;BME280;16713;52.916;12.834;2023-02-14T05:41:28;103091.53;;;5.42;71.39
29825;BME280;16713;52.916;12.834;2023-02-14T05:43:54;103091.22;;;5.39;72.39
29825;BME280;16713;52.916;12.834;2023-02-14T05:46:21;103081.00;;;5.51;71.71
29825;BME280;16713;52.916;12.834;2023-02-14T05:48:47;103078.31;;;5.56;70.95
29825;BME280;16713;52.916;12.834;2023-02-14T05:51:13;103087.53;;;5.55;71.08
29825;BME280;16713;52.916;12.834;2023-02-14T05:53:40;103080.69;;;5.47;71.11
29825;BME280;16713;52.916;12.834;2023-02-14T05:56:06;103085.38;;;5.57;70.69
29825;BME280;16713;52.916;12.834;2023-02-14T05:58:33;103090.53;;;5.53;70.34
29825;BME280;16713;52.916;12.834;2023-02-14T06:00:59;103084.28;;;5.53;71.29
29825;BME280;16713;52.916;12.834;2023-02-14T06:03:26;103084.28;;;5.53;71.20
29825;BME280;16713;52.916;12.834;2023-02-14T06:05:53;103076.91;;;5.53;70.50
29825;BME280;16713;52.916;12.834;2023-02-14T06:08:19;103087.28;;;5.56;70.88
29825;BME280;16713;52.916;12.834;2023-02-14T06:10:46;103080.75;;;5.57;69.77
29825;BME280;16713;52.916;12.834;2023-02-14T06:13:12;103081.56;;;5.53;70.05
29825;BME280;16713;52.916;12.834;2023-02-14T06:15:38;103082.66;;;5.57;70.26
29825;BME280;16713;52.916;12.834;2023-02-14T06:18:05;103080.16;;;5.50;70.97
29825;BME280;16713;52.916;12.834;2023-02-14T06:20:31;103085.06;;;5.53;71.21
29825;BME280;16713;52.916;12.834;2023-02-14T06:22:58;103080.16;;;5.50;70.75
29825;BME280;16713;52.916;12.834;2023-02-14T06:25:24;103077.50;;;5.60;70.67
29825;BME280;16713;52.916;12.834;2023-02-14T06:27:54;103075.56;;;5.51;71.34
29825;BME280;16713;52.916;12.834;2023-02-14T06:30:20;103077.78;;;5.59;71.04
29825;BME280;16713;52.916;12.834;2023-02-14T06:32:46;103071.78;;;5.57;70.93
29825;BME280;16713;52.916;12.834;2023-02-14T06:35:13;103072.91;;;5.61;70.23
29825;BME280;16713;52.916;12.834;2023-02-14T06:37:40;103078.75;;;5.43;70.73
29825;BME280;16713;52.916;12.834;2023-02-14T06:40:08;103072.03;;;5.55;70.81
29825;BME280;16713;52.916;12.834;2023-02-14T06:42:34;103073.06;;;5.44;71.33
29825;BME280;16713;52.916;12.834;2023-02-14T06:45:01;103069.56;;;5.54;71.06
29825;BME280;16713;52.916;12.834;2023-02-14T06:47:27;103083.75;;;5.56;70.91
29825;BME280;16713;52.916;12.834;2023-02-14T06:49:54;103079.41;;;5.60;70.85
29825;BME280;16713;52.916;12.834;2023-02-14T06:52:20;103081.59;;;5.63;70.34
29825;BME280;16713;52.916;12.834;2023-02-14T06:54:46;103075.56;;;5.51;70.16
29825;BME280;16713;52.916;12.834;2023-02-14T06:57:13;103081.34;;;5.59;71.25
29825;BME280;16713;52.916;12.834;2023-02-14T06:59:39;103082.69;;;5.62;70.11
29825;BME280;16713;52.916;12.834;2023-02-14T07:02:08;103073.38;;;5.53;71.46
29825;BME280;16713;52.916;12.834;2023-02-14T07:04:34;103079.13;;;5.61;70.82
29825;BME280;16713;52.916;12.834;2023-02-14T07:07:01;103082.13;;;5.60;70.75
29825;BME280;16713;52.916;12.834;2023-02-14T07:09:27;103078.84;;;5.53;70.47
29825;BME280;16713;52.916;12.834;2023-02-14T07:11:54;103074.75;;;5.55;70.63
29825;BME280;16713;52.916;12.834;2023-02-14T07:14:20;103074.50;;;5.57;70.77
29825;BME280;16713;52.916;12.834;2023-02-14T07:16:46;103073.97;;;5.60;70.70
29825;BME280;16713;52.916;12.834;2023-02-14T07:19:13;103077.78;;;5.59;70.98
29825;BME280;16713;52.916;12.834;2023-02-14T07:21:39;103067.72;;;5.59;70.88
29825;BME280;16713;52.916;12.834;2023-02-14T07:24:05;103070.69;;;5.58;69.92
29825;BME280;16713;52.916;12.834;2023-02-14T07:26:32;103066.63;;;5.60;70.21
29825;BME280;16713;52.916;12.834;2023-02-14T07:28:58;103066.09;;;5.63;71.21
29825;BME280;16713;52.916;12.834;2023-02-14T07:31:24;103069.03;;;5.57;70.50
29825;BME280;16713;52.916;12.834;2023-02-14T07:33:51;103076.94;;;5.58;71.20
29825;BME280;16713;52.916;12.834;2023-02-14T07:36:17;103082.47;;;5.68;70.92
29825;BME280;16713;52.916;12.834;2023-02-14T07:38:44;103075.09;;;5.64;71.34
29825;BME280;16713;52.916;12.834;2023-02-14T07:41:10;103079.44;;;5.65;70.81
29825;BME280;16713;52.916;12.834;2023-02-14T07:43:36;103078.38;;;5.71;71.04
29825;BME280;16713;52.916;12.834;2023-02-14T07:46:04;103076.19;;;5.68;70.68
29825;BME280;16713;52.916;12.834;2023-02-14T07:48:31;103072.09;;;5.65;72.15
29825;BME280;16713;52.916;12.834;2023-02-14T07:50:59;103071.03;;;5.71;71.53
29825;BME280;16713;52.916;12.834;2023-02-14T07:53:26;103071.88;;;5.72;71.85
29825;BME280;16713;52.916;12.834;2023-02-14T07:55:52;103066.41;;;5.72;71.84
29825;BME280;16713;52.916;12.834;2023-02-14T07:58:19;103065.06;;;5.74;71.97
29825;BME280;16713;52.916;12.834;2023-02-14T08:00:45;103070.28;;;5.81;71.36
29825;BME280;16713;52.916;12.834;2023-02-14T08:03:12;103067.22;;;5.72;72.07
29825;BME280;16713;52.916;12.834;2023-02-14T08:05:39;103059.69;;;5.89;71.81
29825;BME280;16713;52.916;12.834;2023-02-14T08:08:05;103067.47;;;5.71;71.87
29825;BME280;16713;52.916;12.834;2023-02-14T08:10:31;103069.91;;;5.62;71.99
29825;BME280;16713;52.916;12.834;2023-02-14T08:12:57;103073.25;;;5.79;71.30
29825;BME280;16713;52.916;12.834;2023-02-14T08:15:33;103070.84;;;5.83;71.45
29825;BME280;16713;52.916;12.834;2023-02-14T08:18:19;103074.13;;;5.90;71.90
29825;BME280;16713;52.916;12.834;2023-02-14T08:20:46;103077.44;;;5.97;71.27
29825;BME280;16713;52.916;12.834;2023-02-14T08:23:15;103080.19;;;6.02;71.38
29825;BME280;16713;52.916;12.834;2023-02-14T08:25:41;103089.44;;;6.01;71.61
29825;BME280;16713;52.916;12.834;2023-02-14T08:28:08;103086.41;;;5.92;71.72
29825;BME280;16713;52.916;12.834;2023-02-14T08:30:35;103085.28;;;5.88;71.27
29825;BME280;16713;52.916;12.834;2023-02-14T08:33:03;103089.66;;;5.89;71.56
29825;BME280;16713;52.916;12.834;2023-02-14T08:35:30;103095.97;;;6.00;71.60
29825;BME280;16713;52.916;12.834;2023-02-14T08:37:56;103099.28;;;6.12;70.31
29825;BME280;16713;52.916;12.834;2023-02-14T08:40:23;103099.84;;;6.19;70.51
29825;BME280;16713;52.916;12.834;2023-02-14T08:42:49;103107.25;;;6.23;70.37
29825;BME280;16713;52.916;12.834;2023-02-14T08:45:16;103102.91;;;6.27;70.76
29825;BME280;16713;52.916;12.834;2023-02-14T08:47:42;103103.50;;;6.35;70.36
29825;BME280;16713;52.916;12.834;2023-02-14T08:50:10;103098.59;;;6.42;70.66
29825;BME280;16713;52.916;12.834;2023-02-14T08:52:37;103104.06;;;6.42;70.80
29825;BME280;16713;52.916;12.834;2023-02-14T08:55:04;103101.91;;;6.49;69.97
29825;BME280;16713;52.916;12.834;2023-02-14T08:57:31;103106.25;;;6.45;70.65
29825;BME280;16713;52.916;12.834;2023-02-14T08:59:57;103106.50;;;6.38;70.74
29825;BME280;16713;52.916;12.834;2023-02-14T09:02:23;103108.72;;;6.41;71.19
29825;BME280;16713;52.916;12.834;2023-02-14T09:04:50;103110.63;;;6.46;70.75
29825;BME280;16713;52.916;12.834;2023-02-14T09:07:16;103104.59;;;6.39;70.82
29825;BME280;16713;52.916;12.834;2023-02-14T09:09:43;103109.22;;;6.43;70.15
29825;BME280;16713;52.916;12.834;2023-02-14T09:12:09;103106.78;;;6.42;70.75
29825;BME280;16713;52.916;12.834;2023-02-14T09:14:37;103108.97;;;6.40;70.81
29825;BME280;16713;52.916;12.834;2023-02-14T09:17:04;103107.06;;;6.45;70.19
29825;BME280;16713;52.916;12.834;2023-02-14T09:19:34;103110.59;;;6.41;70.07
29825;BME280;16713;52.916;12.834;2023-02-14T09:22:01;103110.63;;;6.46;69.79
29825;BME280;16713;52.916;12.834;2023-02-14T09:24:32;103118.53;;;6.47;69.51
29825;BME280;16713;52.916;12.834;2023-02-14T09:26:59;103110.34;;;6.47;70.05
29825;BME280;16713;52.916;12.834;2023-02-14T09:29:25;103112.00;;;6.53;69.11
29825;BME280;16713;52.916;12.834;2023-02-14T09:31:56;103107.09;;;6.50;69.79
29825;BME280;16713;52.916;12.834;2023-02-14T09:34:23;103102.44;;;6.46;69.89
29825;BME280;16713;52.916;12.834;2023-02-14T09:36:49;103106.81;;;6.52;69.48
29825;BME280;16713;52.916;12.834;2023-02-14T09:39:35;103112.56;;;6.55;69.54
29825;BME280;16713;52.916;12.834;2023-02-14T09:42:17;103106.28;;;6.60;69.37
29825;BME280;16713;52.916;12.834;2023-02-14T09:44:54;103115.31;;;6.60;69.42
29825;BME280;16713;52.916;12.834;2023-02-14T09:47:43;103113.13;;;6.67;69.07
29825;BME280;16713;52.916;12.834;2023-02-14T09:50:12;103110.13;;;6.64;68.19
29825;BME280;16713;52.916;12.834;2023-02-14T09:52:43;103116.66;;;6.63;68.43
29825;BME280;16713;52.916;12.834;2023-02-14T09:55:14;103126.47;;;6.69;68.12
29825;BME280;16713;52.916;12.834;2023-02-14T09:57:57;103118.56;;;6.67;67.67
29825;BME280;16713;52.916;12.834;2023-02-14T10:03:05;103131.41;;;6.67;67.80
29825;BME280;16713;52.916;12.834;2023-02-14T10:05:36;103128.69;;;6.77;67.34
29825;BME280;16713;52.916;12.834;2023-02-14T10:10:39;103126.50;;;6.79;68.69
29825;BME280;16713;52.916;12.834;2023-02-14T10:13:21;103121.06;;;6.79;67.73
29825;BME280;16713;52.916;12.834;2023-02-14T10:15:55;103117.50;;;6.83;68.11
29825;BME280;16713;52.916;12.834;2023-02-14T10:18:25;103121.34;;;6.82;67.59
29825;BME280;16713;52.916;12.834;2023-02-14T10:20:54;103126.50;;;6.79;68.09
29825;BME280;16713;52.916;12.834;2023-02-14T10:25:53;103128.16;;;6.80;68.04
29825;BME280;16713;52.916;12.834;2023-02-14T10:28:24;103123.22;;;6.82;67.73
29825;BME280;16713;52.916;12.834;2023-02-14T10:31:04;103115.34;;;6.85;67.30
29825;BME280;16713;52.916;12.834;2023-02-14T10:33:36;103125.16;;;6.81;67.16
29825;BME280;16713;52.916;12.834;2023-02-14T10:36:08;103125.16;;;6.81;67.89
29825;BME280;16713;52.916;12.834;2023-02-14T10:38:45;103117.50;;;6.83;67.49
29825;BME280;16713;52.916;12.834;2023-02-14T10:46:29;103124.63;;;6.89;67.24
29825;BME280;16713;52.916;12.834;2023-02-14T10:49:08;103121.88;;;6.94;66.08
29825;BME280;16713;52.916;12.834;2023-02-14T10:51:45;103113.72;;;7.04;66.56
29825;BME280;16713;52.916;12.834;2023-02-14T10:54:25;103118.34;;;7.09;66.90
29825;BME280;16713;52.916;12.834;2023-02-14T10:56:59;103111.53;;;7.01;66.97
29825;BME280;16713;52.916;12.834;2023-02-14T11:02:14;103108.81;;;7.01;66.79
29825;BME280;16713;52.916;12.834;2023-02-14T11:04:41;103109.63;;;6.97;66.37
29825;BME280;16713;52.916;12.834;2023-02-14T11:07:15;103095.44;;;7.00;66.63
29825;BME280;16713;52.916;12.834;2023-02-14T11:09:41;103108.53;;;6.98;66.23
29825;BME280;16713;52.916;12.834;2023-02-14T11:12:08;103105.25;;;7.06;66.93
29825;BME280;16713;52.916;12.834;2023-02-14T11:14:35;103096.78;;;7.02;65.92
29825;BME280;16713;52.916;12.834;2023-02-14T11:19:54;103096.00;;;7.02;67.12
29825;BME280;16713;52.916;12.834;2023-02-14T11:22:28;103095.16;;;7.06;66.62
29825;BME280;16713;52.916;12.834;2023-02-14T11:25:04;103099.00;;;7.05;66.77
29825;BME280;16713;52.916;12.834;2023-02-14T11:27:31;103093.28;;;7.07;67.75
29825;BME280;16713;52.916;12.834;2023-02-14T11:29:58;103094.88;;;6.93;67.87
29825;BME280;16713;52.916;12.834;2023-02-14T11:32:28;103090.53;;;6.97;68.49
29825;BME280;16713;52.916;12.834;2023-02-14T11:37:32;103097.34;;;7.19;67.53
29825;BME280;16713;52.916;12.834;2023-02-14T11:40:02;103092.44;;;7.21;67.75
29825;BME280;16713;52.916;12.834;2023-02-14T11:42:34;103086.13;;;7.41;67.05
29825;BME280;16713;52.916;12.834;2023-02-14T11:45:02;103083.94;;;7.53;65.58
29825;BME280;16713;52.916;12.834;2023-02-14T11:47:31;103083.66;;;7.49;66.13
29825;BME280;16713;52.916;12.834;2023-02-14T11:50:02;103085.84;;;7.42;67.16
29825;BME280;16713;52.916;12.834;2023-02-14T11:52:31;103079.31;;;7.48;67.10
29825;BME280;16713;52.916;12.834;2023-02-14T11:54:58;103071.41;;;7.52;65.49
29825;BME280;16713;52.916;12.834;2023-02-14T11:57:26;103074.94;;;7.52;64.92
29825;BME280;16713;52.916;12.834;2023-02-14T11:59:58;103071.91;;;7.59;64.77
29825;BME280;16713;52.916;12.834;2023-02-14T12:04:59;103073.25;;;7.66;65.90
29825;BME280;16713;52.916;12.834;2023-02-14T12:07:30;103068.63;;;7.57;65.03
29825;BME280;16713;52.916;12.834;2023-02-14T12:10:05;103069.44;;;7.67;64.91
29825;BME280;16713;52.916;12.834;2023-02-14T12:12:33;103070.84;;;7.60;65.77
29825;BME280;16713;52.916;12.834;2023-02-14T12:18:16;103060.44;;;7.62;65.98
29825;BME280;16713;52.916;12.834;2023-02-14T12:20:53;103054.16;;;7.61;65.07
29825;BME280;16713;52.916;12.834;2023-02-14T12:23:39;103046.00;;;7.56;66.15
29825;BME280;16713;52.916;12.834;2023-02-14T12:29:17;103043.53;;;7.55;65.05
29825;BME280;16713;52.916;12.834;2023-02-14T12:31:42;103044.03;;;7.67;64.59
29825;BME280;16713;52.916;12.834;2023-02-14T12:34:12;103041.31;;;7.62;63.94
29825;BME280;16713;52.916;12.834;2023-02-14T12:39:19;103043.19;;;7.71;65.83
29825;BME280;16713;52.916;12.834;2023-02-14T12:44:38;103032.56;;;7.65;64.23
29825;BME280;16713;52.916;12.834;2023-02-14T12:47:20;103022.00;;;7.38;65.07
29825;BME280;16713;52.916;12.834;2023-02-14T12:52:48;103018.13;;;7.49;66.45
29825;BME280;16713;52.916;12.834;2023-02-14T13:06:21;103009.69;;;7.46;66.57
29825;BME280;16713;52.916;12.834;2023-02-14T13:08:50;103011.00;;;7.58;65.37
29825;BME280;16713;52.916;12.834;2023-02-14T13:21:42;102994.13;;;7.51;64.11
29825;BME280;16713;52.916;12.834;2023-02-14T13:24:14;102990.25;;;7.57;66.03
29825;BME280;16713;52.916;12.834;2023-02-14T13:26:42;102991.06;;;7.63;65.23
29825;BME280;16713;52.916;12.834;2023-02-14T13:29:12;102991.44;;;7.31;63.53
29825;BME280;16713;52.916;12.834;2023-02-14T13:31:39;102994.09;;;7.56;65.56
29825;BME280;16713;52.916;12.834;2023-02-14T13:36:45;102985.34;;;7.59;65.54
29825;BME280;16713;52.916;12.834;2023-02-14T13:39:15;102989.09;;;7.73;65.22
29825;BME280;16713;52.916;12.834;2023-02-14T13:41:45;102977.41;;;7.68;65.67
29825;BME280;16713;52.916;12.834;2023-02-14T13:44:15;102981.78;;;7.64;64.51
29825;BME280;16713;52.916;12.834;2023-02-14T13:46:58;102982.06;;;7.57;66.52
29825;BME280;16713;52.916;12.834;2023-02-14T13:49:28;102983.19;;;7.51;66.17
29825;BME280;16713;52.916;12.834;2023-02-14T13:52:00;102982.34;;;7.61;65.04
29825;BME280;16713;52.916;12.834;2023-02-14T13:54:30;102972.56;;;7.40;66.40
29825;BME280;16713;52.916;12.834;2023-02-14T13:56:58;102974.47;;;7.44;63.75
29825;BME280;16713;52.916;12.834;2023-02-14T13:59:30;102973.91;;;7.52;63.09
29825;BME280;16713;52.916;12.834;2023-02-14T14:04:42;102970.13;;;7.43;64.62
29825;BME280;16713;52.916;12.834;2023-02-14T14:17:32;102958.41;;;7.33;65.95
29825;BME280;16713;52.916;12.834;2023-02-14T14:20:00;102967.13;;;7.40;65.33
29825;BME280;16713;52.916;12.834;2023-02-14T14:22:27;102966.06;;;7.36;65.41
29825;BME280;16713;52.916;12.834;2023-02-14T14:24:54;102969.59;;;7.36;65.42
29825;BME280;16713;52.916;12.834;2023-02-14T14:27:23;102961.38;;;7.36;64.53
29825;BME280;16713;52.916;12.834;2023-02-14T14:29:54;102963.63;;;7.29;64.81
29825;BME280;16713;52.916;12.834;2023-02-14T14:34:57;102956.53;;;7.18;65.73
29825;BME280;16713;52.916;12.834;2023-02-14T14:37:29;102957.34;;;7.29;65.57
29825;BME280;16713;52.916;12.834;2023-02-14T14:39:56;102945.59;;;7.23;65.00
29825;BME280;16713;52.916;12.834;2023-02-14T14:42:24;102949.72;;;7.21;64.79
29825;BME280;16713;52.916;12.834;2023-02-14T14:44:53;102950.28;;;7.13;66.22
29825;BME280;16713;52.916;12.834;2023-02-14T14:47:25;102935.25;;;7.10;66.26
29825;BME280;16713;52.916;12.834;2023-02-14T14:49:56;102944.81;;;7.18;65.46
29825;BME280;16713;52.916;12.834;2023-02-14T14:55:23;102940.22;;;7.03;65.85
29825;BME280;16713;52.916;12.834;2023-02-14T14:57:52;102933.91;;;7.08;65.63
29825;BME280;16713;52.916;12.834;2023-02-14T15:00:23;102919.50;;;6.87;65.50
29825;BME280;16713;52.916;12.834;2023-02-14T15:05:26;102928.47;;;6.93;66.87
29825;BME280;16713;52.916;12.834;2023-02-14T15:07:53;102930.38;;;7.02;66.60
29825;BME280;16713;52.916;12.834;2023-02-14T15:10:25;102929.84;;;6.95;65.76
29825;BME280;16713;52.916;12.834;2023-02-14T15:12:52;102928.47;;;6.98;66.17